createdAt,value
2023-09-23T00:04:35.148Z,6.37
2023-09-23T00:09:40.254Z,6.70
2023-09-23T00:14:42.831Z,4.60
2023-09-23T00:19:44.618Z,6.13
2023-09-23T00:24:46.576Z,7.37
2023-09-23T00:29:48.738Z,6.67
2023-09-23T00:34:50.511Z,3.73
2023-09-23T00:39:52.856Z,4.10
2023-09-23T00:44:54.568Z,4.97
2023-09-23T00:49:56.342Z,9.13
2023-09-23T00:54:58.119Z,2.77
2023-09-23T00:59:59.824Z,7.13
2023-09-23T01:05:01.651Z,3.33
2023-09-23T01:10:04.528Z,4.90
2023-09-23T01:15:09.841Z,5.10
2023-09-23T01:20:15.099Z,3.37
2023-09-23T01:25:18.182Z,6.53
2023-09-23T01:30:23.067Z,4.90
2023-09-23T01:35:25.063Z,3.60
2023-09-23T01:40:30.373Z,4.70
2023-09-23T01:45:33.048Z,3.30
2023-09-23T01:50:34.814Z,4.50
2023-09-23T01:55:38.078Z,4.90
2023-09-23T02:00:40.340Z,5.30
2023-09-23T02:05:43.033Z,5.70
2023-09-23T02:10:47.048Z,7.40
2023-09-23T02:15:48.882Z,7.63
2023-09-23T02:20:51.360Z,6.77
2023-09-23T02:25:54.007Z,3.97
2023-09-23T02:30:55.889Z,6.87
2023-09-23T02:36:01.872Z,5.30
2023-09-23T02:41:06.595Z,5.13
2023-09-23T02:46:08.838Z,4.70
2023-09-23T02:51:14.073Z,4.33
2023-09-23T02:56:17.020Z,4.40
2023-09-23T03:01:19.988Z,9.67
2023-09-23T03:06:23.150Z,6.83
2023-09-23T03:11:28.026Z,3.67
2023-09-23T03:16:30.364Z,5.53
2023-09-23T03:21:32.565Z,5.37
2023-09-23T03:26:34.308Z,4.50
2023-09-23T03:31:36.208Z,3.57
2023-09-23T03:36:39.301Z,3.50
2023-09-23T03:41:45.262Z,5.73
2023-09-23T03:46:48.251Z,4.53
2023-09-23T03:51:49.993Z,5.87
2023-09-23T03:56:51.829Z,6.10
2023-09-23T04:01:53.752Z,5.43
2023-09-23T04:06:56.718Z,6.30
2023-09-23T04:11:58.414Z,4.93
2023-09-23T04:17:00.134Z,5.63
2023-09-23T04:22:02.054Z,5.80
2023-09-23T04:27:03.817Z,5.77
2023-09-23T04:32:05.738Z,4.87
2023-09-23T04:37:07.497Z,5.00
2023-09-23T04:42:10.097Z,4.73
2023-09-23T04:47:13.872Z,5.83
2023-09-23T04:52:18.017Z,4.60
2023-09-23T04:57:20.012Z,5.03
2023-09-23T05:02:22.345Z,3.33
2023-09-23T05:07:28.201Z,4.90
2023-09-23T05:12:30.638Z,4.40
2023-09-23T05:17:32.571Z,4.87
2023-09-23T05:22:34.429Z,6.50
2023-09-23T05:27:36.178Z,3.63
2023-09-23T05:32:40.624Z,7.63
2023-09-23T05:37:42.848Z,5.67
2023-09-23T05:42:44.537Z,5.10
2023-09-23T05:47:46.886Z,8.23
2023-09-23T05:52:49.133Z,6.87
2023-09-23T05:57:50.854Z,6.63
2023-09-23T06:02:52.788Z,6.33
2023-09-23T06:07:54.644Z,4.53
2023-09-23T06:12:56.471Z,5.97
2023-09-23T06:17:58.419Z,6.53
2023-09-23T06:23:00.416Z,4.87
2023-09-23T06:28:02.184Z,6.23
2023-09-23T06:33:04.885Z,6.27
2023-09-23T06:38:06.629Z,4.00
2023-09-23T06:43:08.736Z,5.40
2023-09-23T06:48:10.460Z,6.70
2023-09-23T06:53:12.201Z,6.40
2023-09-23T06:58:13.949Z,6.63
2023-09-23T07:03:15.876Z,5.87
2023-09-23T07:08:17.855Z,6.50
2023-09-23T07:13:20.483Z,7.90
2023-09-23T07:18:22.328Z,10.93
2023-09-23T07:23:24.355Z,5.83
2023-09-23T07:28:26.196Z,6.00
2023-09-23T07:33:28.497Z,5.57
2023-09-23T07:38:30.329Z,5.23
2023-09-23T07:43:33.094Z,6.43
2023-09-23T07:48:34.848Z,6.37
2023-09-23T07:53:36.510Z,5.43
2023-09-23T07:58:38.209Z,6.60
2023-09-23T08:03:39.915Z,4.90
2023-09-23T08:08:41.775Z,6.93
2023-09-23T08:13:43.727Z,7.63
2023-09-23T08:18:45.445Z,7.73
2023-09-23T08:23:47.272Z,5.07
2023-09-23T08:28:49.282Z,5.10
2023-09-23T08:33:51.322Z,5.63
2023-09-23T08:38:53.166Z,4.93
2023-09-23T08:43:55.855Z,4.80
2023-09-23T08:48:59.641Z,5.50
2023-09-23T08:54:01.550Z,4.97
2023-09-23T08:59:04.564Z,2.97
2023-09-23T09:04:06.701Z,5.60
2023-09-23T09:09:08.766Z,4.50
2023-09-23T09:14:11.807Z,4.70
2023-09-23T09:19:14.094Z,4.60
2023-09-23T09:24:15.974Z,4.67
2023-09-23T09:29:17.853Z,4.63
2023-09-23T09:34:25.465Z,4.40
2023-09-23T09:39:30.226Z,6.57
2023-09-23T09:44:33.065Z,5.13
2023-09-23T09:49:35.964Z,5.13
2023-09-23T09:54:38.095Z,3.87
2023-09-23T09:59:42.954Z,4.83
2023-09-23T10:04:50.203Z,6.07
2023-09-23T10:09:56.459Z,4.83
2023-09-23T10:15:03.058Z,6.87
2023-09-23T10:20:14.262Z,4.70
2023-09-23T10:25:16.012Z,6.93
2023-09-23T10:30:23.357Z,6.53
2023-09-23T10:35:25.485Z,7.07
2023-09-23T10:40:27.272Z,3.93
2023-09-23T10:45:29.023Z,10.20
2023-09-23T10:50:30.922Z,6.47
2023-09-23T10:55:32.728Z,4.60
2023-09-23T11:00:34.832Z,6.73
2023-09-23T11:05:41.021Z,4.80
2023-09-23T11:10:45.358Z,5.00
2023-09-23T11:15:47.133Z,4.47
2023-09-23T11:20:49.125Z,5.17
2023-09-23T11:25:51.887Z,6.53
2023-09-23T11:30:55.208Z,6.27
2023-09-23T11:35:58.451Z,4.17
2023-09-23T11:41:01.614Z,5.40
2023-09-23T11:46:03.739Z,6.47
2023-09-23T11:51:05.872Z,6.72
2023-09-23T11:56:07.621Z,5.45
2023-09-23T12:01:09.399Z,6.20
2023-09-23T12:06:11.173Z,5.72
2023-09-23T12:11:13.140Z,7.20
2023-09-23T12:16:15.088Z,6.35
2023-09-23T12:21:17.309Z,4.70
2023-09-23T12:26:19.925Z,5.33
2023-09-23T12:31:21.736Z,5.03
2023-09-23T12:36:24.399Z,6.97
2023-09-23T12:41:26.138Z,6.47
2023-09-23T12:46:27.894Z,6.03
2023-09-23T12:51:29.579Z,4.40
2023-09-23T12:56:31.362Z,4.47
2023-09-23T13:01:34.231Z,6.90
2023-09-23T13:06:36.499Z,5.27
2023-09-23T13:11:38.358Z,5.17
2023-09-23T13:16:40.305Z,6.43
2023-09-23T13:21:42.519Z,4.40
2023-09-23T13:26:45.185Z,5.57
2023-09-23T13:31:46.973Z,9.57
2023-09-23T13:36:48.709Z,5.00
2023-09-23T13:41:53.144Z,5.27
2023-09-23T13:46:55.083Z,5.47
2023-09-23T13:51:58.615Z,3.67
2023-09-23T13:57:00.296Z,5.07
2023-09-23T14:02:02.969Z,4.37
2023-09-23T14:07:04.685Z,4.87
2023-09-23T14:12:07.491Z,4.83
2023-09-23T14:17:12.005Z,5.63
2023-09-23T14:22:13.879Z,7.33
2023-09-23T14:27:15.641Z,5.90
2023-09-23T14:32:17.372Z,4.63
2023-09-23T14:37:19.098Z,5.03
2023-09-23T14:42:21.328Z,5.23
2023-09-23T14:47:23.251Z,5.50
2023-09-23T14:52:25.149Z,6.63
2023-09-23T14:57:27.864Z,4.87
2023-09-23T15:02:29.812Z,4.67
2023-09-23T15:07:32.308Z,7.77
2023-09-23T15:12:34.341Z,5.33
2023-09-23T15:17:39.473Z,5.60
2023-09-23T15:22:42.128Z,4.50
2023-09-23T15:27:44.009Z,5.57
2023-09-23T15:32:48.099Z,6.07
2023-09-23T15:37:50.185Z,5.07
2023-09-23T15:42:51.904Z,5.23
2023-09-23T15:47:53.671Z,6.20
2023-09-23T15:52:55.453Z,7.13
2023-09-23T15:57:57.332Z,7.53
2023-09-23T16:03:01.285Z,14.33
2023-09-23T16:08:03.957Z,42.07
2023-09-23T16:13:05.855Z,24.20
2023-09-23T16:18:07.929Z,45.40
2023-09-23T16:23:09.841Z,23.13
2023-09-23T16:28:11.573Z,11.77
2023-09-23T16:33:13.639Z,7.13
2023-09-23T16:38:16.122Z,9.27
2023-09-23T16:43:18.134Z,9.00
2023-09-23T16:48:19.939Z,9.60
2023-09-23T16:53:21.708Z,9.50
2023-09-23T16:58:23.963Z,11.43
2023-09-23T17:03:25.877Z,6.83
2023-09-23T17:08:29.232Z,7.37
2023-09-23T17:13:32.095Z,9.13
2023-09-23T17:18:33.978Z,9.77
2023-09-23T17:23:35.840Z,8.10
2023-09-23T17:28:37.592Z,9.33
2023-09-23T17:33:39.517Z,14.67
2023-09-23T17:38:41.456Z,8.40
2023-09-23T17:43:43.613Z,10.37
2023-09-23T17:48:45.419Z,8.27
2023-09-23T17:53:47.359Z,9.87
2023-09-23T17:58:50.205Z,8.10
2023-09-23T18:03:52.278Z,7.80
2023-09-23T18:08:54.433Z,7.03
2023-09-23T18:13:57.590Z,10.37
2023-09-23T18:18:59.392Z,9.37
2023-09-23T18:24:01.229Z,11.73
2023-09-23T18:29:03.513Z,7.83
2023-09-23T18:34:05.544Z,7.93
2023-09-23T18:39:07.428Z,9.63
2023-09-23T18:44:09.280Z,10.43
2023-09-23T18:49:11.320Z,24.40
2023-09-23T18:54:13.043Z,16.30
2023-09-23T18:59:14.969Z,7.47
2023-09-23T19:04:17.594Z,8.13
2023-09-23T19:09:19.874Z,7.97
2023-09-23T19:14:22.459Z,8.80
2023-09-23T19:19:24.309Z,7.83
2023-09-23T19:24:25.990Z,8.33
2023-09-23T19:29:27.877Z,7.53
2023-09-23T19:34:30.357Z,7.10
2023-09-23T19:39:37.901Z,7.23
2023-09-23T19:44:39.855Z,6.63
2023-09-23T19:49:41.712Z,6.83
2023-09-23T19:54:43.408Z,6.73
2023-09-23T19:59:45.207Z,8.73
2023-09-23T20:04:47.258Z,7.23
2023-09-23T20:09:48.988Z,8.37
2023-09-23T20:14:50.741Z,6.13
2023-09-23T20:19:52.453Z,7.87
2023-09-23T20:24:54.219Z,5.90
2023-09-23T20:30:06.334Z,7.83
2023-09-23T20:35:13.122Z,5.33
2023-09-23T20:40:16.892Z,7.93
2023-09-23T20:45:18.868Z,5.00
2023-09-23T20:50:20.872Z,7.07
2023-09-23T20:55:22.882Z,8.97
2023-09-23T21:00:24.594Z,11.40
2023-09-23T21:05:28.555Z,6.67
2023-09-23T21:10:30.839Z,11.57
2023-09-23T21:15:32.607Z,6.33
2023-09-23T21:20:34.318Z,15.17
2023-09-23T21:25:36.137Z,9.17
2023-09-23T21:30:37.893Z,8.27
2023-09-23T21:35:40.728Z,6.67
2023-09-23T21:40:43.985Z,7.17
2023-09-23T21:45:45.765Z,19.60
2023-09-23T21:50:56.328Z,8.60
2023-09-23T21:56:04.353Z,6.45
2023-09-23T22:01:08.116Z,8.03
2023-09-23T22:06:09.993Z,6.43
2023-09-23T22:11:11.813Z,8.30
2023-09-23T22:16:13.665Z,8.03
2023-09-23T22:21:15.380Z,6.80
2023-09-23T22:26:17.300Z,8.83
2023-09-23T22:31:26.518Z,7.40
2023-09-23T22:36:28.338Z,8.83
2023-09-23T22:41:31.464Z,7.73
2023-09-23T22:46:33.203Z,7.17
2023-09-23T22:51:34.931Z,8.65
2023-09-23T22:56:37.025Z,7.47
2023-09-23T23:01:38.866Z,8.13
2023-09-23T23:06:40.660Z,8.03
2023-09-23T23:11:43.015Z,8.27
2023-09-23T23:16:46.012Z,9.00
2023-09-23T23:21:48.003Z,9.00
2023-09-23T23:26:49.728Z,11.20
2023-09-23T23:31:51.487Z,8.67
2023-09-23T23:36:53.438Z,7.97
2023-09-23T23:41:55.199Z,6.13
2023-09-23T23:46:57.439Z,6.87
2023-09-23T23:51:59.155Z,8.77
2023-09-23T23:57:00.957Z,7.67
